Time;durP1;ratioP1;P1;durP2;ratioP2;P2;SDS_P1;SDS_P2;PMS_P1;PMS_P2;Temp;Humidity;BMP_temperature;BMP_pressure;BME280_temperature;BME280_humidity;BME280_pressure;Samples;Min_cycle;Max_cycle;Signal;HPM_P1;HPM_P2
2022/12/01 00:02:07;;;;;;;27.13;19.27;;;;;;;5.52;100.00;102713.09;5072830;28;20076;-34
2022/12/01 00:04:32;;;;;;;25.53;18.80;;;;;;;5.47;100.00;102700.13;5074804;28;20028;-35
2022/12/01 00:06:57;;;;;;;27.30;19.17;;;;;;;5.46;100.00;102703.78;5074575;28;20024;-34
2022/12/01 00:12:06;;;;;;;30.13;20.50;;;;;;;5.34;100.00;102696.97;5074882;28;20094;-35
2022/12/01 00:14:31;;;;;;;31.63;22.30;;;;;;;5.39;100.00;102710.75;5075435;28;20036;-35
2022/12/01 00:16:57;;;;;;;31.70;21.63;;;;;;;5.33;100.00;102704.16;5074543;28;20472;-34
2022/12/01 00:19:27;;;;;;;29.53;20.83;;;;;;;5.25;100.00;102687.97;5074382;28;20408;-35
2022/12/01 00:21:52;;;;;;;30.02;20.25;;;;;;;5.34;100.00;102700.47;5074325;28;20048;-35
2022/12/01 00:24:17;;;;;;;32.75;21.85;;;;;;;5.29;100.00;102710.81;5074704;28;20091;-34
2022/12/01 00:26:43;;;;;;;34.07;22.20;;;;;;;5.14;100.00;102701.59;5074754;28;20404;-35
2022/12/01 00:29:08;;;;;;;33.67;21.67;;;;;;;5.28;100.00;102709.16;5074553;28;20111;-34
2022/12/01 00:31:34;;;;;;;31.60;21.23;;;;;;;5.24;100.00;102698.88;5074100;28;20078;-35
2022/12/01 00:33:59;;;;;;;35.40;22.63;;;;;;;5.15;100.00;102685.34;5074083;28;20024;-35
2022/12/01 00:36:24;;;;;;;35.57;22.77;;;;;;;5.21;100.00;102705.34;5072769;28;20102;-35
2022/12/01 00:38:52;;;;;;;37.00;23.07;;;;;;;5.11;100.00;102697.38;5089961;28;20393;-36
2022/12/01 00:41:17;;;;;;;37.42;22.92;;;;;;;5.24;100.00;102704.22;5073936;28;20085;-35
2022/12/01 00:43:43;;;;;;;34.70;22.40;;;;;;;5.19;100.00;102702.00;5074624;28;20037;-35
2022/12/01 00:46:08;;;;;;;37.40;23.57;;;;;;;5.14;100.00;102702.44;5073810;28;20033;-35
2022/12/01 00:48:33;;;;;;;37.90;22.70;;;;;;;5.15;100.00;102701.44;5073871;28;20028;-35
2022/12/01 00:50:59;;;;;;;35.03;23.03;;;;;;;5.16;100.00;102710.34;5073803;28;20499;-35
2022/12/01 00:53:24;;;;;;;36.23;21.93;;;;;;;5.08;100.00;102702.22;5073711;28;20035;-35
2022/12/01 00:55:52;;;;;;;34.13;21.60;;;;;;;5.14;100.00;102706.97;5073995;28;20283;-35
2022/12/01 00:58:18;;;;;;;34.95;21.50;;;;;;;5.17;100.00;102706.66;5074306;28;20029;-35
2022/12/01 01:00:43;;;;;;;36.87;22.43;;;;;;;5.18;100.00;102707.53;5073744;28;20040;-36
2022/12/01 01:03:09;;;;;;;36.73;23.13;;;;;;;5.21;100.00;102702.69;5073178;28;20024;-36
2022/12/01 01:05:39;;;;;;;35.08;21.33;;;;;;;5.20;100.00;102706.34;5073936;28;20035;-36
2022/12/01 01:08:09;;;;;;;32.50;21.38;;;;;;;5.26;100.00;102703.06;5073693;28;20491;-35
2022/12/01 01:10:39;;;;;;;35.90;22.00;;;;;;;5.23;100.00;102706.06;5072958;28;20442;-36
2022/12/01 01:13:05;;;;;;;34.45;20.38;;;;;;;5.21;100.00;102708.03;5074152;28;20024;-36
2022/12/01 01:15:30;;;;;;;35.23;21.37;;;;;;;5.16;100.00;102695.09;5073310;28;20043;-36
2022/12/01 01:17:56;;;;;;;33.90;20.80;;;;;;;5.23;100.00;102715.97;5073890;28;20262;-36
2022/12/01 01:20:21;;;;;;;35.43;21.43;;;;;;;5.09;100.00;102706.56;5073603;28;20051;-35
2022/12/01 01:22:46;;;;;;;37.43;22.50;;;;;;;5.23;100.00;102722.16;5073590;28;20105;-35
2022/12/01 01:25:12;;;;;;;37.27;22.70;;;;;;;5.12;100.00;102722.34;5073608;28;20460;-35
2022/12/01 01:27:37;;;;;;;37.57;22.03;;;;;;;5.14;100.00;102723.06;5073988;28;20043;-35
2022/12/01 01:30:03;;;;;;;37.67;22.10;;;;;;;5.15;100.00;102724.75;5073265;28;20040;-35
2022/12/01 01:32:28;;;;;;;39.92;23.52;;;;;;;5.16;100.00;102729.09;5073348;28;20453;-35
2022/12/01 01:34:53;;;;;;;35.67;21.27;;;;;;;5.21;100.00;102736.69;5073244;28;20457;-35
2022/12/01 01:37:18;;;;;;;34.77;22.47;;;;;;;5.20;100.00;102735.88;5072347;28;20472;-35
2022/12/01 01:39:44;;;;;;;34.33;21.13;;;;;;;5.23;100.00;102743.63;5073037;28;20028;-35
2022/12/01 01:42:13;;;;;;;36.60;20.98;;;;;;;5.24;100.00;102734.56;5073098;28;20036;-34
2022/12/01 01:44:53;;;;;;;34.72;22.33;;;;;;;5.30;100.00;102739.34;5073419;28;20078;-35
2022/12/01 01:47:25;;;;;;;37.95;21.40;;;;;;;5.28;100.00;102729.75;5072573;28;20031;-35
2022/12/01 01:49:52;;;;;;;33.65;21.17;;;;;;;5.25;100.00;102738.09;5072641;28;20103;-34
2022/12/01 01:52:17;;;;;;;39.80;24.42;;;;;;;5.08;100.00;102735.22;5073202;28;20033;-34
2022/12/01 01:54:48;;;;;;;39.95;24.88;;;;;;;5.10;100.00;102741.28;5073399;28;20058;-35
2022/12/01 01:57:19;;;;;;;38.22;23.02;;;;;;;5.05;100.00;102726.63;5073062;28;20032;-35
2022/12/01 01:59:52;;;;;;;40.80;23.40;;;;;;;5.19;100.00;102736.03;5072772;28;20027;-35
2022/12/01 02:02:17;;;;;;;39.25;23.55;;;;;;;5.20;100.00;102743.91;5073515;28;20119;-34
2022/12/01 02:04:50;;;;;;;38.17;23.13;;;;;;;5.08;100.00;102726.34;5072857;28;20214;-35
2022/12/01 02:07:17;;;;;;;36.47;22.27;;;;;;;5.16;100.00;102729.94;5072634;28;20115;-34
2022/12/01 02:09:43;;;;;;;41.30;24.88;;;;;;;5.15;100.00;102730.09;5072844;28;20479;-35
2022/12/01 02:12:33;;;;;;;42.70;25.65;;;;;;;5.15;100.00;102719.38;5072917;28;20048;-34
2022/12/01 02:15:19;;;;;;;38.55;23.92;;;;;;;5.18;100.00;102734.34;5072601;28;20029;-34
2022/12/01 02:17:56;;;;;;;36.80;22.43;;;;;;;5.20;100.00;102737.72;5072855;28;20119;-34
2022/12/01 02:20:40;;;;;;;37.13;23.77;;;;;;;5.22;100.00;102743.75;5073019;28;20073;-34
2022/12/01 02:23:44;;;;;;;37.83;23.63;;;;;;;5.21;100.00;102739.38;5072847;28;20029;-35
2022/12/01 02:26:32;;;;;;;39.42;23.00;;;;;;;5.21;100.00;102737.53;5072410;28;20083;-35
2022/12/01 02:29:10;;;;;;;38.03;22.70;;;;;;;5.22;100.00;102739.25;5072458;28;20032;-35
2022/12/01 02:31:59;;;;;;;34.08;21.48;;;;;;;5.26;100.00;102737.09;5072403;28;20031;-35
2022/12/01 02:34:57;;;;;;;41.97;24.75;;;;;;;5.23;100.00;102737.41;5072831;28;20387;-35
2022/12/01 02:37:48;;;;;;;38.30;23.52;;;;;;;5.09;100.00;102726.19;5010832;28;20391;-34
2022/12/01 02:40:30;;;;;;;38.05;22.85;;;;;;;5.17;100.00;102733.47;5010847;28;20030;-35
2022/12/01 02:43:03;;;;;;;37.88;23.88;;;;;;;5.07;100.00;102727.31;5010500;28;20157;-35
2022/12/01 02:45:35;;;;;;;36.03;23.75;;;;;;;5.18;100.00;102739.72;5010776;28;20096;-34
2022/12/01 02:48:05;;;;;;;37.42;24.20;;;;;;;5.09;100.00;102734.22;5010590;28;20038;-35
2022/12/01 02:50:34;;;;;;;39.03;24.00;;;;;;;5.12;100.00;102741.13;5013855;28;20038;-34
2022/12/01 02:53:01;;;;;;;37.08;23.13;;;;;;;5.18;100.00;102729.81;5013916;28;20522;-35
2022/12/01 02:55:27;;;;;;;36.42;23.02;;;;;;;5.25;100.00;102735.41;5014177;28;20045;-35
2022/12/01 02:57:52;;;;;;;36.30;23.17;;;;;;;5.25;100.00;102738.94;5014316;28;20038;-35
2022/12/01 03:00:18;;;;;;;38.67;23.33;;;;;;;5.18;100.00;102734.34;5014061;28;20042;-35
2022/12/01 03:03:09;;;;;;;36.03;23.77;;;;;;;5.17;100.00;102741.50;5014576;28;20382;-35
2022/12/01 03:05:55;;;;;;;35.22;21.65;;;;;;;5.20;100.00;102735.03;4998054;28;20048;-35
2022/12/01 03:08:34;;;;;;;39.67;24.70;;;;;;;5.07;100.00;102721.94;5014425;28;20120;-34
2022/12/01 03:11:00;;;;;;;36.78;23.58;;;;;;;5.14;100.00;102728.44;5014076;28;20394;-35
2022/12/01 03:14:10;;;;;;;32.45;22.15;;;;;;;5.27;100.00;102745.03;5038390;28;20036;-35
2022/12/01 03:16:50;;;;;;;32.47;20.67;;;;;;;5.30;100.00;102741.19;5013577;28;20038;-35
2022/12/01 03:19:28;;;;;;;36.55;22.70;;;;;;;5.22;100.00;102725.84;5014180;28;20045;-34
2022/12/01 03:22:21;;;;;;;37.72;23.98;;;;;;;5.30;100.00;102743.84;5013679;28;20034;-35
2022/12/01 03:24:48;;;;;;;36.85;22.67;;;;;;;5.28;100.00;102740.50;5013637;28;20485;-35
2022/12/01 03:27:17;;;;;;;35.47;23.20;;;;;;;5.30;100.00;102738.50;5013501;28;20053;-35
2022/12/01 03:29:47;;;;;;;34.15;22.50;;;;;;;5.29;100.00;102737.66;5013179;28;20048;-35
2022/12/01 03:32:57;;;;;;;35.60;24.55;;;;;;;5.20;100.00;102727.81;5013144;28;20092;-35
2022/12/01 03:35:28;;;;;;;35.78;23.23;;;;;;;5.26;100.00;102742.47;4935944;29;20039;-35
2022/12/01 03:38:05;;;;;;;34.38;22.80;;;;;;;5.23;100.00;102738.25;4935856;29;20040;-35
2022/12/01 03:40:35;;;;;;;35.28;22.42;;;;;;;5.29;100.00;102747.53;4935769;29;20074;-35
2022/12/01 03:43:07;;;;;;;34.58;24.20;;;;;;;5.15;100.00;102725.59;4935594;29;20043;-35
2022/12/01 03:45:46;;;;;;;37.42;22.95;;;;;;;5.25;100.00;102738.94;4935837;29;20059;-35
2022/12/01 03:48:12;;;;;;;36.00;23.35;;;;;;;5.20;100.00;102733.19;4936144;29;20044;-34
2022/12/01 03:50:52;;;;;;;37.55;23.85;;;;;;;5.14;100.00;102736.47;4935481;29;20555;-34
2022/12/01 03:53:24;;;;;;;32.30;20.60;;;;;;;5.22;100.00;102746.44;4957570;28;20061;-35
2022/12/01 03:55:56;;;;;;;35.38;22.92;;;;;;;5.20;100.00;102743.91;4993779;28;20035;-34
2022/12/01 03:58:27;;;;;;;36.63;23.08;;;;;;;5.20;100.00;102735.03;4993115;28;20150;-35
2022/12/01 04:00:56;;;;;;;33.63;22.83;;;;;;;5.28;100.00;102743.19;4992859;28;20026;-34
2022/12/01 04:03:24;;;;;;;31.45;22.05;;;;;;;5.22;100.00;102735.72;4993601;28;20038;-35
2022/12/01 04:05:49;;;;;;;34.20;23.17;;;;;;;5.22;100.00;102739.25;4993194;28;20134;-35
2022/12/01 04:08:15;;;;;;;32.65;22.80;;;;;;;5.14;100.00;102723.06;4993204;28;20030;-34
2022/12/01 04:10:40;;;;;;;33.70;23.23;;;;;;;5.21;100.00;102745.59;4997848;28;20022;-35
2022/12/01 04:13:10;;;;;;;31.97;22.50;;;;;;;5.22;100.00;102738.38;5075257;28;20021;-34
2022/12/01 04:15:36;;;;;;;38.10;23.88;;;;;;;5.13;100.00;102726.75;5074468;28;20036;-34
2022/12/01 04:18:01;;;;;;;33.53;23.93;;;;;;;5.13;100.00;102741.00;5074951;28;20033;-34
2022/12/01 04:20:26;;;;;;;35.63;24.20;;;;;;;5.09;100.00;102741.44;5074422;28;20052;-34
2022/12/01 04:22:52;;;;;;;34.03;23.57;;;;;;;5.10;100.00;102749.31;5074290;28;20064;-34
2022/12/01 04:25:17;;;;;;;34.83;23.20;;;;;;;5.08;100.00;102737.91;5072845;28;20128;-34
2022/12/01 04:27:42;;;;;;;36.07;23.07;;;;;;;5.13;100.00;102750.88;5073923;28;20025;-34
2022/12/01 04:30:08;;;;;;;34.70;22.93;;;;;;;5.14;100.00;102748.03;5074000;28;20036;-34
2022/12/01 04:32:38;;;;;;;34.03;23.13;;;;;;;5.14;100.00;102749.88;5074226;28;20090;-34
2022/12/01 04:35:05;;;;;;;36.35;24.20;;;;;;;5.07;100.00;102746.09;5074349;28;20478;-34
2022/12/01 04:37:30;;;;;;;35.05;22.73;;;;;;;5.09;100.00;102744.13;5074568;28;20028;-34
2022/12/01 04:39:56;;;;;;;31.10;21.40;;;;;;;5.14;100.00;102749.88;5074177;28;20031;-34
2022/12/01 04:42:21;;;;;;;33.63;21.93;;;;;;;5.16;100.00;102746.03;5089514;28;20016;-35
2022/12/01 04:44:46;;;;;;;32.13;21.47;;;;;;;5.18;100.00;102737.88;5073605;28;20060;-35
2022/12/01 04:47:11;;;;;;;34.30;22.80;;;;;;;5.21;100.00;102736.69;5073965;28;20024;-35
2022/12/01 04:49:37;;;;;;;34.67;22.63;;;;;;;5.16;100.00;102742.50;5074169;28;20044;-34
2022/12/01 04:52:03;;;;;;;32.33;21.53;;;;;;;5.19;100.00;102736.88;5073633;28;20489;-35
2022/12/01 04:54:29;;;;;;;33.33;23.15;;;;;;;5.11;100.00;102742.97;5073706;28;20024;-34
2022/12/01 04:56:54;;;;;;;;;;;;;;;5.18;100.00;102745.06;5074239;28;20032;-34
2022/12/01 04:59:20;;;;;;;36.17;23.70;;;;;;;5.09;100.00;102742.28;5073631;28;19930;-34
2022/12/01 05:01:46;;;;;;;39.33;22.73;;;;;;;5.07;100.00;102727.31;5073519;28;20033;-35
2022/12/01 05:04:12;;;;;;;36.55;22.52;;;;;;;5.12;100.00;102742.00;5074108;28;20020;-35
2022/12/01 05:06:38;;;;;;;29.88;21.23;;;;;;;5.15;100.00;102741.69;5073017;28;20103;-35
2022/12/01 05:09:03;;;;;;;33.30;22.55;;;;;;;5.14;100.00;102741.84;5073696;28;20020;-35
2022/12/01 05:11:30;;;;;;;35.77;22.43;;;;;;;5.13;100.00;102732.09;5071672;28;20072;-35
2022/12/01 05:13:56;;;;;;;34.38;22.13;;;;;;;5.10;100.00;102740.44;5072931;28;20723;-35
2022/12/01 05:16:31;;;;;;;33.35;22.40;;;;;;;5.14;100.00;102741.84;5072013;28;20039;-34
2022/12/01 05:21:47;;;;;;;31.05;22.13;;;;;;;5.08;100.00;102745.97;5073703;28;20039;-35
2022/12/01 05:24:13;;;;;;;33.80;21.38;;;;;;;5.12;100.00;102744.69;5071950;28;20535;-35
2022/12/01 05:26:40;;;;;;;38.63;25.77;;;;;;;5.03;100.00;102747.41;5073615;28;20140;-35
2022/12/01 05:29:06;;;;;;;40.03;24.30;;;;;;;5.01;100.00;102742.16;5071466;28;20032;-34
2022/12/01 05:31:32;;;;;;;34.53;23.50;;;;;;;5.01;100.00;102738.63;5073252;28;20021;-34
2022/12/01 05:33:57;;;;;;;37.93;24.80;;;;;;;5.06;100.00;102752.44;5073088;28;20040;-34
2022/12/01 05:36:23;;;;;;;35.43;22.67;;;;;;;5.09;100.00;102749.47;5073280;28;20285;-35
2022/12/01 05:38:48;;;;;;;36.87;23.53;;;;;;;5.04;100.00;102754.44;5073584;28;20020;-35
2022/12/01 05:41:14;;;;;;;39.03;25.47;;;;;;;5.07;100.00;102751.44;5073231;28;20631;-34
2022/12/01 05:43:39;;;;;;;33.63;22.27;;;;;;;5.05;100.00;102734.69;5073741;28;20401;-34
2022/12/01 05:46:05;;;;;;;36.40;24.43;;;;;;;5.01;100.00;102734.13;5072690;28;20033;-34
2022/12/01 05:48:30;;;;;;;40.88;25.52;;;;;;;5.07;100.00;102754.13;5073664;28;20028;-35
2022/12/01 05:50:56;;;;;;;42.60;25.25;;;;;;;5.03;100.00;102753.59;5072645;28;20115;-35
2022/12/01 05:53:21;;;;;;;40.87;26.33;;;;;;;5.00;100.00;102756.56;5073475;28;20056;-35
2022/12/01 05:55:52;;;;;;;45.67;27.53;;;;;;;4.96;100.00;102759.69;5072565;28;20424;-35
2022/12/01 05:58:17;;;;;;;43.33;27.45;;;;;;;4.89;100.00;102751.41;5072510;28;20036;-35
2022/12/01 06:00:42;;;;;;;46.33;27.17;;;;;;;4.84;100.00;102745.63;5072506;28;20033;-35
2022/12/01 06:03:08;;;;;;;45.90;27.67;;;;;;;4.90;100.00;102755.75;5073043;28;20032;-34
2022/12/01 06:05:33;;;;;;;43.70;26.70;;;;;;;5.02;100.00;102759.94;5072532;28;20469;-34
2022/12/01 06:07:58;;;;;;;46.27;27.83;;;;;;;4.98;100.00;102763.06;5072343;28;20025;-34
2022/12/01 06:10:24;;;;;;;43.13;26.00;;;;;;;4.94;100.00;102759.84;5072987;28;20032;-34
2022/12/01 06:12:49;;;;;;;40.87;25.80;;;;;;;5.00;100.00;102763.78;5072914;28;20021;-35
2022/12/01 06:15:14;;;;;;;41.47;25.77;;;;;;;5.01;100.00;102770.81;5072847;28;20025;-35
2022/12/01 06:17:40;;;;;;;46.60;26.07;;;;;;;5.00;100.00;102761.94;5072429;28;20119;-34
2022/12/01 06:20:06;;;;;;;42.87;27.27;;;;;;;5.02;100.00;102764.47;5073116;28;20029;-36
2022/12/01 06:22:31;;;;;;;;;;;;;;;5.07;100.00;102764.84;5072751;28;20031;-35
2022/12/01 06:24:56;;;;;;;44.23;26.87;;;;;;;4.93;100.00;102749.25;5075726;28;20251;-35
2022/12/01 06:27:22;;;;;;;46.17;27.23;;;;;;;4.98;100.00;102768.41;5076280;28;20340;-34
2022/12/01 06:29:48;;;;;;;39.27;24.67;;;;;;;5.00;100.00;102763.78;5076537;28;20028;-35
2022/12/01 06:32:14;;;;;;;44.20;26.83;;;;;;;4.90;100.00;102751.25;5076413;28;20279;-34
2022/12/01 06:34:39;;;;;;;42.30;26.10;;;;;;;5.00;100.00;102764.63;5077038;28;20074;-35
2022/12/01 06:37:04;;;;;;;40.13;26.20;;;;;;;4.93;100.00;102752.81;5076184;28;20028;-35
2022/12/01 06:39:30;;;;;;;41.53;25.03;;;;;;;5.03;100.00;102768.84;5076905;28;20024;-34
2022/12/01 06:41:55;;;;;;;40.50;25.63;;;;;;;5.07;100.00;102764.84;5074973;28;20060;-34
2022/12/01 06:44:20;;;;;;;47.70;27.90;;;;;;;4.98;100.00;102771.97;5076667;28;20107;-34
2022/12/01 06:46:46;;;;;;;44.17;26.00;;;;;;;4.91;100.00;102757.44;5074963;28;20029;-34
2022/12/01 06:49:12;;;;;;;45.90;27.70;;;;;;;4.92;100.00;102772.53;5076695;28;20036;-34
2022/12/01 06:51:38;;;;;;;44.50;26.98;;;;;;;4.94;100.00;102775.09;5075929;28;20036;-34
2022/12/01 06:54:03;;;;;;;40.97;26.70;;;;;;;4.88;100.00;102763.97;5075109;28;20036;-34
2022/12/01 06:56:29;;;;;;;43.40;25.23;;;;;;;4.97;100.00;102785.50;5075946;28;20108;-35
2022/12/01 06:58:54;;;;;;;41.27;25.23;;;;;;;5.00;100.00;102788.75;5076243;28;20027;-35
2022/12/01 07:01:19;;;;;;;40.03;25.37;;;;;;;4.93;100.00;102784.09;5076122;28;20029;-35
2022/12/01 07:03:49;;;;;;;41.93;25.60;;;;;;;4.99;100.00;102791.59;5074881;28;20040;-34
2022/12/01 07:06:16;;;;;;;41.83;25.50;;;;;;;4.96;100.00;102787.34;5075904;28;20051;-35
2022/12/01 07:08:41;;;;;;;45.30;27.88;;;;;;;4.84;100.00;102770.59;5075732;28;20046;-35
2022/12/01 07:11:11;;;;;;;39.23;23.87;;;;;;;5.03;100.00;102790.31;5075654;28;20460;-34
2022/12/01 07:13:37;;;;;;;40.67;23.95;;;;;;;5.07;100.00;102802.41;5075551;28;20024;-34
2022/12/01 07:16:02;;;;;;;40.85;25.02;;;;;;;5.05;100.00;102793.66;5075838;28;20036;-35
2022/12/01 07:18:28;;;;;;;39.38;25.05;;;;;;;5.02;100.00;102794.78;5075486;28;20035;-35
2022/12/01 07:20:58;;;;;;;36.22;23.48;;;;;;;4.95;100.00;102787.50;5075677;28;20032;-35
2022/12/01 07:23:23;;;;;;;37.95;24.23;;;;;;;5.02;100.00;102796.63;5075815;28;20040;-35
2022/12/01 07:26:00;;;;;;;37.00;24.53;;;;;;;5.12;100.00;102805.47;5075436;28;20036;-35
2022/12/01 07:28:27;;;;;;;39.70;25.42;;;;;;;5.11;100.00;102803.81;5075024;28;20016;-34
2022/12/01 07:30:53;;;;;;;34.30;21.35;;;;;;;5.15;100.00;102808.72;5075266;28;20036;-34
2022/12/01 07:33:18;;;;;;;36.83;23.25;;;;;;;5.11;100.00;102809.16;5075092;28;20123;-34
2022/12/01 07:35:43;;;;;;;35.07;22.47;;;;;;;5.07;100.00;102797.03;5073961;28;20521;-34
2022/12/01 07:38:09;;;;;;;36.50;23.80;;;;;;;5.07;100.00;102807.75;5075572;28;20051;-35
2022/12/01 07:40:34;;;;;;;37.53;23.33;;;;;;;5.07;100.00;102805.91;5075153;28;20024;-35
2022/12/01 07:42:59;;;;;;;36.13;23.67;;;;;;;5.07;100.00;102803.25;5075182;28;20469;-35
2022/12/01 07:45:24;;;;;;;38.23;23.80;;;;;;;5.09;100.00;102808.47;5091008;28;20024;-35
2022/12/01 07:47:53;;;;;;;34.20;22.43;;;;;;;5.10;100.00;102811.00;5075619;28;20108;-34
2022/12/01 07:50:19;;;;;;;38.65;23.27;;;;;;;5.08;100.00;102807.63;5074648;28;20136;-35
2022/12/01 07:52:48;;;;;;;36.25;23.38;;;;;;;5.08;100.00;102818.38;5075177;28;20032;-35
2022/12/01 07:55:13;;;;;;;33.88;23.52;;;;;;;4.98;100.00;102809.50;5075394;28;20032;-35
2022/12/01 07:57:39;;;;;;;36.60;22.97;;;;;;;5.07;100.00;102816.66;5074989;28;20491;-35
2022/12/01 08:00:06;;;;;;;33.23;22.03;;;;;;;4.99;100.00;102800.47;5074815;28;20512;-35
2022/12/01 08:02:32;;;;;;;34.13;22.88;;;;;;;5.15;100.00;102824.81;5074751;28;20473;-35
2022/12/01 08:04:58;;;;;;;31.85;20.67;;;;;;;5.07;100.00;102802.41;5073164;28;20045;-35
2022/12/01 08:07:23;;;;;;;36.13;23.07;;;;;;;5.19;100.00;102822.69;5075209;28;20376;-35
2022/12/01 08:09:48;;;;;;;31.63;22.37;;;;;;;5.21;100.00;102831.44;5075005;28;20024;-35
2022/12/01 08:12:14;;;;;;;34.50;22.33;;;;;;;5.26;100.00;102829.16;5074677;28;20086;-35
2022/12/01 08:14:39;;;;;;;33.57;23.23;;;;;;;5.28;100.00;102832.53;5074858;28;20465;-35
2022/12/01 08:17:04;;;;;;;33.03;21.63;;;;;;;5.30;100.00;102835.91;5074498;28;20032;-35
2022/12/01 08:19:29;;;;;;;37.53;23.33;;;;;;;5.27;100.00;102835.34;5074681;28;20099;-35
2022/12/01 08:21:55;;;;;;;39.43;24.07;;;;;;;5.20;100.00;102824.38;5074189;28;20028;-35
2022/12/01 08:24:21;;;;;;;38.92;24.85;;;;;;;5.20;100.00;102837.78;5074165;28;20461;-35
2022/12/01 08:26:46;;;;;;;37.63;25.23;;;;;;;5.13;100.00;102832.19;5074290;28;20025;-35
2022/12/01 08:29:11;;;;;;;35.97;23.50;;;;;;;5.16;100.00;102842.59;5074365;28;20024;-35
2022/12/01 08:31:38;;;;;;;38.77;25.33;;;;;;;5.17;100.00;102835.38;5073937;28;20047;-35
2022/12/01 08:34:07;;;;;;;37.15;23.70;;;;;;;5.06;100.00;102828.38;5074645;28;20120;-35
2022/12/01 08:36:33;;;;;;;38.67;25.55;;;;;;;5.11;100.00;102844.88;5074663;28;20029;-35
2022/12/01 08:38:59;;;;;;;36.58;24.98;;;;;;;5.17;100.00;102840.75;5074108;28;20115;-35
2022/12/01 08:41:24;;;;;;;37.00;24.88;;;;;;;5.18;100.00;102847.00;5073929;28;20036;-35
2022/12/01 08:43:50;;;;;;;35.83;23.48;;;;;;;5.24;100.00;102841.03;5073875;28;20342;-35
2022/12/01 08:46:15;;;;;;;35.78;24.38;;;;;;;5.22;100.00;102841.19;5073405;28;20062;-35
2022/12/01 08:48:41;;;;;;;37.30;25.27;;;;;;;5.21;100.00;102846.69;5074158;28;20445;-35
2022/12/01 08:51:08;;;;;;;33.53;23.57;;;;;;;5.24;100.00;102841.88;5073940;28;20465;-35
2022/12/01 08:53:35;;;;;;;36.58;23.73;;;;;;;5.28;100.00;102845.97;5074087;28;20036;-35
2022/12/01 08:56:04;;;;;;;34.20;22.83;;;;;;;5.38;100.00;102848.59;5073767;28;20032;-35
2022/12/01 08:58:29;;;;;;;34.80;23.50;;;;;;;5.37;100.00;102849.59;5073549;28;20518;-34
2022/12/01 09:01:09;;;;;;;34.83;23.43;;;;;;;5.37;100.00;102833.50;5074108;28;20107;-35
2022/12/01 09:03:35;;;;;;;32.97;21.85;;;;;;;5.49;100.00;102847.56;5073309;28;20024;-34
2022/12/01 09:06:28;;;;;;;36.05;23.55;;;;;;;5.42;100.00;102844.63;5073493;28;20029;-35
2022/12/01 09:08:53;;;;;;;32.83;23.08;;;;;;;5.40;100.00;102835.88;5070966;28;20338;-34
2022/12/01 09:11:18;;;;;;;34.30;24.77;;;;;;;5.41;100.00;102843.75;5073199;28;20024;-35
2022/12/01 09:13:45;;;;;;;33.90;24.17;;;;;;;5.53;100.00;102846.28;5072394;28;20032;-35
2022/12/01 09:16:13;;;;;;;32.90;23.02;;;;;;;5.53;100.00;102851.63;5073164;28;20138;-35
2022/12/01 09:18:39;;;;;;;33.65;23.55;;;;;;;5.58;100.00;102846.66;5073591;28;20047;-35
2022/12/01 09:21:19;;;;;;;35.63;23.55;;;;;;;5.61;100.00;102857.97;5073106;28;20025;-35
2022/12/01 09:23:45;;;;;;;31.73;23.73;;;;;;;5.60;100.00;102844.66;5073657;28;20039;-35
2022/12/01 09:26:11;;;;;;;32.30;22.88;;;;;;;5.71;100.00;102849.84;5073711;28;20048;-35
2022/12/01 09:28:37;;;;;;;31.88;21.75;;;;;;;5.77;100.00;102853.78;5073186;28;20067;-35
2022/12/01 09:31:05;;;;;;;33.25;22.88;;;;;;;5.74;100.00;102849.53;5072964;28;20086;-34
2022/12/01 09:33:30;;;;;;;33.75;22.88;;;;;;;5.83;100.00;102863.91;5073602;28;20032;-35
2022/12/01 09:35:59;;;;;;;28.73;20.20;;;;;;;5.92;100.00;102854.97;5073584;28;20046;-35
2022/12/01 09:38:25;;;;;;;33.97;22.88;;;;;;;5.94;100.00;102864.56;5073167;28;20282;-35
2022/12/01 09:40:51;;;;;;;34.05;22.90;;;;;;;5.79;100.00;102846.41;5073059;28;20024;-35
2022/12/01 09:43:25;;;;;;;35.97;23.42;;;;;;;5.88;100.00;102859.75;5073345;28;20035;-34
2022/12/01 09:45:57;;;;;;;34.72;23.15;;;;;;;5.91;100.00;102862.19;5073021;28;20067;-35
2022/12/01 09:48:44;;;;;;;32.78;20.98;;;;;;;6.07;100.00;102866.88;5072745;28;20079;-35
2022/12/01 09:51:13;;;;;;;38.33;22.77;;;;;;;6.04;100.00;102863.66;5072817;28;20028;-35
2022/12/01 09:53:40;;;;;;;32.85;23.15;;;;;;;5.98;100.00;102865.09;5072483;28;20024;-35
2022/12/01 09:56:06;;;;;;;33.67;23.38;;;;;;;5.88;100.00;102840.97;5073133;28;20039;-35
2022/12/01 09:58:32;;;;;;;32.20;23.40;;;;;;;5.97;100.00;102850.00;5072317;28;20348;-34
2022/12/01 10:00:57;;;;;;;;;;;;;;;6.08;100.00;102846.25;5073206;28;20052;-35
2022/12/01 10:03:45;;;;;;;31.00;21.97;;;;;;;6.04;100.00;102848.38;5073075;28;19958;-35
2022/12/01 10:06:15;;;;;;;33.17;23.48;;;;;;;6.01;100.00;102842.50;5072953;28;20282;-35
2022/12/01 10:08:55;;;;;;;31.17;20.90;;;;;;;6.05;100.00;102835.78;5088120;28;20076;-35
2022/12/01 10:11:20;;;;;;;33.88;22.80;;;;;;;6.08;100.00;102838.19;5072476;28;20016;-35
2022/12/01 10:13:46;;;;;;;34.90;23.17;;;;;;;6.04;100.00;102845.69;5073082;28;20024;-35
2022/12/01 10:16:18;;;;;;;36.70;23.90;;;;;;;6.02;100.00;102838.81;5072594;28;20039;-35
2022/12/01 10:19:12;;;;;;;34.28;23.15;;;;;;;6.03;100.00;102837.78;5072836;28;20032;-35
2022/12/01 10:21:47;;;;;;;36.13;25.27;;;;;;;6.00;100.00;102828.19;5072586;28;20104;-35
2022/12/01 10:24:29;;;;;;;35.17;23.95;;;;;;;6.02;100.00;102846.84;5072294;28;20542;-35
2022/12/01 10:27:14;;;;;;;36.97;24.42;;;;;;;5.96;100.00;102820.63;5073437;28;20047;-35
2022/12/01 10:29:47;;;;;;;35.47;23.25;;;;;;;5.87;100.00;102828.53;5072483;28;20539;-35
2022/12/01 10:32:18;;;;;;;31.08;21.27;;;;;;;5.97;100.00;102833.03;5072402;28;20037;-35
2022/12/01 10:34:46;;;;;;;36.33;23.67;;;;;;;5.82;100.00;102820.09;5073090;28;20067;-35
2022/12/01 10:37:24;;;;;;;34.83;23.15;;;;;;;5.92;100.00;102825.44;5072301;28;20108;-35
2022/12/01 10:39:51;;;;;;;41.17;25.63;;;;;;;5.86;100.00;102829.56;5072363;28;20035;-36
2022/12/01 10:42:49;;;;;;;35.88;24.88;;;;;;;5.98;100.00;102829.34;5072258;28;20039;-36
2022/12/01 10:45:25;;;;;;;38.95;24.45;;;;;;;5.86;100.00;102816.13;5010358;28;20504;-36
2022/12/01 10:48:14;;;;;;;36.50;24.50;;;;;;;6.08;100.00;102814.00;5010190;28;20081;-35
2022/12/01 10:50:39;;;;;;;38.35;25.88;;;;;;;6.09;100.00;102813.00;5010230;28;20053;-36
2022/12/01 10:53:05;;;;;;;38.13;25.10;;;;;;;6.18;100.00;102807.56;5011024;28;20030;-36
2022/12/01 10:55:36;;;;;;;37.10;25.15;;;;;;;6.29;100.00;102805.63;5010455;28;20034;-36
2022/12/01 10:58:12;;;;;;;36.55;23.25;;;;;;;6.18;100.00;102787.91;5010836;28;20390;-36
2022/12/01 11:00:39;;;;;;;37.70;24.38;;;;;;;6.29;100.00;102801.09;5010295;28;20446;-36
2022/12/01 11:03:05;;;;;;;37.80;23.05;;;;;;;6.42;100.00;102814.97;5010198;28;20504;-35
2022/12/01 11:05:36;;;;;;;38.15;24.40;;;;;;;6.35;100.00;102789.75;5010428;28;20057;-34
2022/12/01 11:08:01;;;;;;;36.10;24.27;;;;;;;6.42;100.00;102806.91;5010673;28;20034;-34
2022/12/01 11:10:32;;;;;;;38.35;24.42;;;;;;;6.34;100.00;102801.47;4994446;28;20084;-34
2022/12/01 11:13:03;;;;;;;32.92;22.42;;;;;;;6.41;100.00;102804.41;5014399;28;20036;-34
2022/12/01 11:15:38;;;;;;;33.55;22.63;;;;;;;6.41;100.00;102799.88;5014111;28;20069;-34
2022/12/01 11:18:19;;;;;;;34.33;22.30;;;;;;;6.52;100.00;102808.69;5014073;28;20029;-34
2022/12/01 11:20:44;;;;;;;34.67;23.48;;;;;;;6.53;100.00;102805.81;5042838;28;20132;-34
2022/12/01 11:23:25;;;;;;;34.15;23.55;;;;;;;6.46;100.00;102802.09;5075508;28;20453;-35
2022/12/01 11:26:02;;;;;;;35.70;23.08;;;;;;;6.49;100.00;102799.09;5075339;28;20054;-34